sensor_id;sensor_type;location;lat;lon;timestamp;temperature;humidity
7562;DHT22;3822;48.784;9.174;2022-10-31T00:01:15;17.50;91.60
7562;DHT22;3822;48.784;9.174;2022-10-31T00:03:45;17.50;91.60
7562;DHT22;3822;48.784;9.174;2022-10-31T00:06:11;17.40;91.60
7562;DHT22;3822;48.784;9.174;2022-10-31T00:08:38;17.40;91.60
7562;DHT22;3822;48.784;9.174;2022-10-31T00:11:09;17.40;91.70
7562;DHT22;3822;48.784;9.174;2022-10-31T00:13:36;17.40;91.70
7562;DHT22;3822;48.784;9.174;2022-10-31T00:16:02;17.40;91.80
7562;DHT22;3822;48.784;9.174;2022-10-31T00:18:29;17.30;91.80
7562;DHT22;3822;48.784;9.174;2022-10-31T00:21:03;17.30;91.80
7562;DHT22;3822;48.784;9.174;2022-10-31T00:23:30;17.30;91.90
7562;DHT22;3822;48.784;9.174;2022-10-31T00:26:01;17.30;91.90
7562;DHT22;3822;48.784;9.174;2022-10-31T00:28:29;17.30;92.00
7562;DHT22;3822;48.784;9.174;2022-10-31T00:31:04;17.20;92.00
7562;DHT22;3822;48.784;9.174;2022-10-31T00:33:34;17.20;92.00
7562;DHT22;3822;48.784;9.174;2022-10-31T00:36:03;17.20;92.00
7562;DHT22;3822;48.784;9.174;2022-10-31T00:38:30;17.10;92.00
7562;DHT22;3822;48.784;9.174;2022-10-31T00:40:57;17.10;92.00
7562;DHT22;3822;48.784;9.174;2022-10-31T00:43:23;17.10;92.00
7562;DHT22;3822;48.784;9.174;2022-10-31T00:45:50;17.00;91.90
7562;DHT22;3822;48.784;9.174;2022-10-31T00:48:17;17.00;91.90
7562;DHT22;3822;48.784;9.174;2022-10-31T00:50:43;17.00;91.90
7562;DHT22;3822;48.784;9.174;2022-10-31T00:53:10;17.00;91.90
7562;DHT22;3822;48.784;9.174;2022-10-31T00:55:36;17.10;92.00
7562;DHT22;3822;48.784;9.174;2022-10-31T00:58:03;16.90;92.00
7562;DHT22;3822;48.784;9.174;2022-10-31T01:00:29;16.90;92.00
7562;DHT22;3822;48.784;9.174;2022-10-31T01:02:56;16.90;92.00
7562;DHT22;3822;48.784;9.174;2022-10-31T01:05:22;16.90;92.00
7562;DHT22;3822;48.784;9.174;2022-10-31T01:07:49;16.80;92.00
7562;DHT22;3822;48.784;9.174;2022-10-31T01:10:16;16.80;92.00
7562;DHT22;3822;48.784;9.174;2022-10-31T01:12:46;16.80;92.10
7562;DHT22;3822;48.784;9.174;2022-10-31T01:15:16;16.80;92.10
7562;DHT22;3822;48.784;9.174;2022-10-31T01:17:48;16.80;92.10
7562;DHT22;3822;48.784;9.174;2022-10-31T01:20:15;16.70;92.10
7562;DHT22;3822;48.784;9.174;2022-10-31T01:22:42;16.70;92.10
7562;DHT22;3822;48.784;9.174;2022-10-31T01:25:09;16.70;92.20
7562;DHT22;3822;48.784;9.174;2022-10-31T01:27:36;16.70;92.20
7562;DHT22;3822;48.784;9.174;2022-10-31T01:30:03;16.70;92.20
7562;DHT22;3822;48.784;9.174;2022-10-31T01:32:31;16.60;92.20
7562;DHT22;3822;48.784;9.174;2022-10-31T01:34:58;16.60;92.30
7562;DHT22;3822;48.784;9.174;2022-10-31T01:37:24;16.60;92.30
7562;DHT22;3822;48.784;9.174;2022-10-31T01:39:51;16.60;92.30
7562;DHT22;3822;48.784;9.174;2022-10-31T01:42:22;16.60;92.30
7562;DHT22;3822;48.784;9.174;2022-10-31T01:44:55;16.60;92.40
7562;DHT22;3822;48.784;9.174;2022-10-31T01:47:36;16.50;92.30
7562;DHT22;3822;48.784;9.174;2022-10-31T01:50:11;16.50;92.40
7562;DHT22;3822;48.784;9.174;2022-10-31T01:52:45;16.50;92.40
7562;DHT22;3822;48.784;9.174;2022-10-31T01:55:25;16.50;92.50
7562;DHT22;3822;48.784;9.174;2022-10-31T01:57:56;16.40;92.50
7562;DHT22;3822;48.784;9.174;2022-10-31T02:00:24;16.40;92.60
7562;DHT22;3822;48.784;9.174;2022-10-31T02:02:51;16.30;92.60
7562;DHT22;3822;48.784;9.174;2022-10-31T02:05:23;16.30;92.60
7562;DHT22;3822;48.784;9.174;2022-10-31T02:07:58;16.30;92.60
7562;DHT22;3822;48.784;9.174;2022-10-31T02:10:30;16.30;92.70
7562;DHT22;3822;48.784;9.174;2022-10-31T02:13:01;16.30;92.70
7562;DHT22;3822;48.784;9.174;2022-10-31T02:15:30;16.30;92.70
7562;DHT22;3822;48.784;9.174;2022-10-31T02:17:58;16.30;92.70
7562;DHT22;3822;48.784;9.174;2022-10-31T02:20:53;16.30;92.70
7562;DHT22;3822;48.784;9.174;2022-10-31T02:32:38;16.20;92.70
7562;DHT22;3822;48.784;9.174;2022-10-31T02:35:37;16.20;92.70
7562;DHT22;3822;48.784;9.174;2022-10-31T02:41:18;16.20;92.70
7562;DHT22;3822;48.784;9.174;2022-10-31T02:44:07;16.20;92.70
7562;DHT22;3822;48.784;9.174;2022-10-31T02:49:40;16.10;92.70
7562;DHT22;3822;48.784;9.174;2022-10-31T02:52:21;16.10;92.70
7562;DHT22;3822;48.784;9.174;2022-10-31T02:54:50;16.10;92.70
7562;DHT22;3822;48.784;9.174;2022-10-31T02:57:23;16.00;93.00
7562;DHT22;3822;48.784;9.174;2022-10-31T02:59:58;16.10;92.80
7562;DHT22;3822;48.784;9.174;2022-10-31T03:11:05;16.00;92.90
7562;DHT22;3822;48.784;9.174;2022-10-31T03:16:23;16.00;92.90
7562;DHT22;3822;48.784;9.174;2022-10-31T03:19:01;16.00;92.90
7562;DHT22;3822;48.784;9.174;2022-10-31T03:24:28;16.00;93.00
7562;DHT22;3822;48.784;9.174;2022-10-31T03:26:58;16.00;93.00
7562;DHT22;3822;48.784;9.174;2022-10-31T03:29:29;16.00;93.10
7562;DHT22;3822;48.784;9.174;2022-10-31T03:32:01;16.00;93.10
7562;DHT22;3822;48.784;9.174;2022-10-31T03:34:31;16.00;93.10
7562;DHT22;3822;48.784;9.174;2022-10-31T03:37:02;15.90;93.10
7562;DHT22;3822;48.784;9.174;2022-10-31T03:39:30;15.90;93.10
7562;DHT22;3822;48.784;9.174;2022-10-31T03:42:21;15.90;93.10
7562;DHT22;3822;48.784;9.174;2022-10-31T03:45:03;15.90;93.10
7562;DHT22;3822;48.784;9.174;2022-10-31T03:47:34;15.90;93.40
7562;DHT22;3822;48.784;9.174;2022-10-31T03:50:01;15.90;93.20
7562;DHT22;3822;48.784;9.174;2022-10-31T03:52:48;15.80;93.10
7562;DHT22;3822;48.784;9.174;2022-10-31T03:55:21;15.80;93.20
7562;DHT22;3822;48.784;9.174;2022-10-31T03:58:08;15.80;93.20
7562;DHT22;3822;48.784;9.174;2022-10-31T04:00:40;15.80;93.20
7562;DHT22;3822;48.784;9.174;2022-10-31T04:03:14;15.80;93.30
7562;DHT22;3822;48.784;9.174;2022-10-31T04:05:45;15.80;93.30
7562;DHT22;3822;48.784;9.174;2022-10-31T04:08:17;15.70;93.20
7562;DHT22;3822;48.784;9.174;2022-10-31T04:10:48;15.80;93.30
7562;DHT22;3822;48.784;9.174;2022-10-31T04:13:19;15.70;93.20
7562;DHT22;3822;48.784;9.174;2022-10-31T04:15:50;15.70;93.30
7562;DHT22;3822;48.784;9.174;2022-10-31T04:18:18;15.70;93.30
7562;DHT22;3822;48.784;9.174;2022-10-31T04:20:47;16.50;93.70
7562;DHT22;3822;48.784;9.174;2022-10-31T04:23:20;15.60;93.30
7562;DHT22;3822;48.784;9.174;2022-10-31T04:25:49;15.60;93.40
7562;DHT22;3822;48.784;9.174;2022-10-31T04:28:15;15.50;93.40
7562;DHT22;3822;48.784;9.174;2022-10-31T04:30:42;15.50;93.50
7562;DHT22;3822;48.784;9.174;2022-10-31T04:33:09;15.50;93.50
7562;DHT22;3822;48.784;9.174;2022-10-31T04:35:35;15.50;93.50
7562;DHT22;3822;48.784;9.174;2022-10-31T04:38:02;15.50;93.60
7562;DHT22;3822;48.784;9.174;2022-10-31T04:40:28;15.50;93.60
7562;DHT22;3822;48.784;9.174;2022-10-31T04:42:55;15.50;93.60
7562;DHT22;3822;48.784;9.174;2022-10-31T04:45:21;15.50;93.60
7562;DHT22;3822;48.784;9.174;2022-10-31T04:47:48;15.50;93.70
7562;DHT22;3822;48.784;9.174;2022-10-31T04:50:14;15.40;93.70
7562;DHT22;3822;48.784;9.174;2022-10-31T04:52:45;15.40;93.70
7562;DHT22;3822;48.784;9.174;2022-10-31T04:55:13;15.40;93.70
7562;DHT22;3822;48.784;9.174;2022-10-31T04:57:48;15.40;93.70
7562;DHT22;3822;48.784;9.174;2022-10-31T05:00:17;15.40;93.70
7562;DHT22;3822;48.784;9.174;2022-10-31T05:02:56;15.40;93.70
7562;DHT22;3822;48.784;9.174;2022-10-31T05:05:26;15.40;93.70
7562;DHT22;3822;48.784;9.174;2022-10-31T05:07:54;15.40;93.90
7562;DHT22;3822;48.784;9.174;2022-10-31T05:10:24;15.40;93.70
7562;DHT22;3822;48.784;9.174;2022-10-31T05:12:55;15.40;93.70
7562;DHT22;3822;48.784;9.174;2022-10-31T05:15:24;15.40;93.70
7562;DHT22;3822;48.784;9.174;2022-10-31T05:17:52;15.40;93.70
7562;DHT22;3822;48.784;9.174;2022-10-31T05:20:21;15.40;93.70
7562;DHT22;3822;48.784;9.174;2022-10-31T05:22:51;15.40;93.70
7562;DHT22;3822;48.784;9.174;2022-10-31T05:25:21;15.30;93.60
7562;DHT22;3822;48.784;9.174;2022-10-31T05:27:51;15.30;93.60
7562;DHT22;3822;48.784;9.174;2022-10-31T05:30:20;15.30;93.60
7562;DHT22;3822;48.784;9.174;2022-10-31T05:32:50;15.30;93.60
7562;DHT22;3822;48.784;9.174;2022-10-31T05:35:19;15.30;93.60
7562;DHT22;3822;48.784;9.174;2022-10-31T05:37:47;15.30;93.60
7562;DHT22;3822;48.784;9.174;2022-10-31T05:40:15;15.30;93.60
7562;DHT22;3822;48.784;9.174;2022-10-31T05:42:43;15.30;93.60
7562;DHT22;3822;48.784;9.174;2022-10-31T05:45:14;15.20;93.60
7562;DHT22;3822;48.784;9.174;2022-10-31T05:47:42;15.20;93.60
7562;DHT22;3822;48.784;9.174;2022-10-31T05:50:18;15.10;93.50
7562;DHT22;3822;48.784;9.174;2022-10-31T05:52:45;15.10;93.50
7562;DHT22;3822;48.784;9.174;2022-10-31T05:55:11;15.10;93.50
7562;DHT22;3822;48.784;9.174;2022-10-31T05:57:38;15.10;93.50
7562;DHT22;3822;48.784;9.174;2022-10-31T06:00:05;15.10;93.50
7562;DHT22;3822;48.784;9.174;2022-10-31T06:02:32;15.10;93.50
7562;DHT22;3822;48.784;9.174;2022-10-31T06:05:01;15.00;93.50
7562;DHT22;3822;48.784;9.174;2022-10-31T06:07:32;15.00;93.50
7562;DHT22;3822;48.784;9.174;2022-10-31T06:10:00;15.00;93.50
7562;DHT22;3822;48.784;9.174;2022-10-31T06:12:29;15.00;93.50
7562;DHT22;3822;48.784;9.174;2022-10-31T06:14:55;15.00;93.50
7562;DHT22;3822;48.784;9.174;2022-10-31T06:17:22;14.90;93.50
7562;DHT22;3822;48.784;9.174;2022-10-31T06:19:48;14.90;93.50
7562;DHT22;3822;48.784;9.174;2022-10-31T06:22:15;14.90;93.50
7562;DHT22;3822;48.784;9.174;2022-10-31T06:24:41;14.90;93.50
7562;DHT22;3822;48.784;9.174;2022-10-31T06:27:08;14.90;93.50
7562;DHT22;3822;48.784;9.174;2022-10-31T06:29:34;14.90;93.50
7562;DHT22;3822;48.784;9.174;2022-10-31T06:32:01;14.90;93.60
7562;DHT22;3822;48.784;9.174;2022-10-31T06:34:27;14.90;93.60
7562;DHT22;3822;48.784;9.174;2022-10-31T06:36:54;14.90;93.60
7562;DHT22;3822;48.784;9.174;2022-10-31T06:39:20;14.90;93.60
7562;DHT22;3822;48.784;9.174;2022-10-31T06:41:48;14.90;93.60
7562;DHT22;3822;48.784;9.174;2022-10-31T06:44:14;15.00;93.90
7562;DHT22;3822;48.784;9.174;2022-10-31T06:46:41;14.90;93.60
7562;DHT22;3822;48.784;9.174;2022-10-31T06:49:07;14.90;93.90
7562;DHT22;3822;48.784;9.174;2022-10-31T06:51:34;14.90;93.70
7562;DHT22;3822;48.784;9.174;2022-10-31T06:54:00;14.90;93.80
7562;DHT22;3822;48.784;9.174;2022-10-31T06:56:27;14.90;93.80
7562;DHT22;3822;48.784;9.174;2022-10-31T06:58:53;14.90;93.80
7562;DHT22;3822;48.784;9.174;2022-10-31T07:01:21;14.90;93.90
7562;DHT22;3822;48.784;9.174;2022-10-31T07:03:47;14.90;93.90
7562;DHT22;3822;48.784;9.174;2022-10-31T07:06:14;15.00;94.00
7562;DHT22;3822;48.784;9.174;2022-10-31T07:08:40;14.90;93.90
7562;DHT22;3822;48.784;9.174;2022-10-31T07:11:07;15.00;93.90
7562;DHT22;3822;48.784;9.174;2022-10-31T07:13:33;15.10;93.90
7562;DHT22;3822;48.784;9.174;2022-10-31T07:16:03;15.10;93.90
7562;DHT22;3822;48.784;9.174;2022-10-31T07:18:30;15.00;93.90
7562;DHT22;3822;48.784;9.174;2022-10-31T07:20:57;15.00;93.90
7562;DHT22;3822;48.784;9.174;2022-10-31T07:23:23;13.40;93.20
7562;DHT22;3822;48.784;9.174;2022-10-31T07:25:57;15.00;93.90
7562;DHT22;3822;48.784;9.174;2022-10-31T07:28:26;15.00;94.00
7562;DHT22;3822;48.784;9.174;2022-10-31T07:30:54;15.00;94.10
7562;DHT22;3822;48.784;9.174;2022-10-31T07:33:22;15.10;94.20
7562;DHT22;3822;48.784;9.174;2022-10-31T07:35:49;15.10;94.20
7562;DHT22;3822;48.784;9.174;2022-10-31T07:38:17;15.10;94.20
7562;DHT22;3822;48.784;9.174;2022-10-31T07:40:48;15.20;94.20
7562;DHT22;3822;48.784;9.174;2022-10-31T07:43:16;15.20;94.20
7562;DHT22;3822;48.784;9.174;2022-10-31T07:45:43;15.20;94.20
7562;DHT22;3822;48.784;9.174;2022-10-31T07:48:09;15.10;94.30
7562;DHT22;3822;48.784;9.174;2022-10-31T07:50:36;15.10;94.30
7562;DHT22;3822;48.784;9.174;2022-10-31T07:53:06;15.00;94.40
7562;DHT22;3822;48.784;9.174;2022-10-31T07:55:34;15.00;94.40
7562;DHT22;3822;48.784;9.174;2022-10-31T08:00:34;15.10;94.40
7562;DHT22;3822;48.784;9.174;2022-10-31T08:03:06;15.10;94.40
7562;DHT22;3822;48.784;9.174;2022-10-31T08:05:35;15.20;94.40
7562;DHT22;3822;48.784;9.174;2022-10-31T08:08:04;15.20;94.40
7562;DHT22;3822;48.784;9.174;2022-10-31T08:14:49;15.30;94.40
7562;DHT22;3822;48.784;9.174;2022-10-31T08:17:16;15.30;94.50
7562;DHT22;3822;48.784;9.174;2022-10-31T08:19:42;15.40;94.60
7562;DHT22;3822;48.784;9.174;2022-10-31T08:22:09;15.40;94.60
7562;DHT22;3822;48.784;9.174;2022-10-31T08:24:35;15.50;94.60
7562;DHT22;3822;48.784;9.174;2022-10-31T08:27:02;15.50;94.60
7562;DHT22;3822;48.784;9.174;2022-10-31T08:29:28;15.60;94.60
7562;DHT22;3822;48.784;9.174;2022-10-31T08:31:57;15.70;94.50
7562;DHT22;3822;48.784;9.174;2022-10-31T08:34:24;15.70;94.40
7562;DHT22;3822;48.784;9.174;2022-10-31T08:36:51;15.70;94.30
7562;DHT22;3822;48.784;9.174;2022-10-31T08:39:18;15.70;94.20
7562;DHT22;3822;48.784;9.174;2022-10-31T08:41:44;15.80;94.20
7562;DHT22;3822;48.784;9.174;2022-10-31T08:44:11;15.80;94.20
7562;DHT22;3822;48.784;9.174;2022-10-31T08:46:37;15.90;94.20
7562;DHT22;3822;48.784;9.174;2022-10-31T08:49:06;15.90;94.10
7562;DHT22;3822;48.784;9.174;2022-10-31T08:51:33;15.90;94.00
7562;DHT22;3822;48.784;9.174;2022-10-31T08:53:59;15.90;93.90
7562;DHT22;3822;48.784;9.174;2022-10-31T08:56:26;15.90;93.90
7562;DHT22;3822;48.784;9.174;2022-10-31T08:58:53;15.90;93.90
7562;DHT22;3822;48.784;9.174;2022-10-31T09:01:20;16.00;93.90
7562;DHT22;3822;48.784;9.174;2022-10-31T09:03:46;16.00;93.90
7562;DHT22;3822;48.784;9.174;2022-10-31T09:06:13;16.00;93.90
7562;DHT22;3822;48.784;9.174;2022-10-31T09:08:40;16.00;93.90
7562;DHT22;3822;48.784;9.174;2022-10-31T09:11:06;16.10;93.90
7562;DHT22;3822;48.784;9.174;2022-10-31T09:13:33;16.20;93.80
7562;DHT22;3822;48.784;9.174;2022-10-31T09:15:59;16.20;93.80
7562;DHT22;3822;48.784;9.174;2022-10-31T09:18:26;16.20;93.70
7562;DHT22;3822;48.784;9.174;2022-10-31T09:20:59;16.20;93.50
7562;DHT22;3822;48.784;9.174;2022-10-31T09:23:26;16.20;93.60
7562;DHT22;3822;48.784;9.174;2022-10-31T09:25:54;16.30;93.60
7562;DHT22;3822;48.784;9.174;2022-10-31T09:28:22;16.30;93.60
7562;DHT22;3822;48.784;9.174;2022-10-31T09:30:51;16.40;93.60
7562;DHT22;3822;48.784;9.174;2022-10-31T09:33:19;16.40;93.50
7562;DHT22;3822;48.784;9.174;2022-10-31T09:35:46;16.50;93.50
7562;DHT22;3822;48.784;9.174;2022-10-31T09:38:18;16.50;93.40
7562;DHT22;3822;48.784;9.174;2022-10-31T09:40:49;16.50;93.30
7562;DHT22;3822;48.784;9.174;2022-10-31T09:43:33;16.50;93.30
7562;DHT22;3822;48.784;9.174;2022-10-31T09:56:17;16.50;93.10
7562;DHT22;3822;48.784;9.174;2022-10-31T09:58:53;16.40;93.10
7562;DHT22;3822;48.784;9.174;2022-10-31T10:01:35;16.40;93.20
7562;DHT22;3822;48.784;9.174;2022-10-31T10:07:06;16.50;93.20
7562;DHT22;3822;48.784;9.174;2022-10-31T10:09:43;16.60;93.30
7562;DHT22;3822;48.784;9.174;2022-10-31T10:16:12;16.70;93.10
7562;DHT22;3822;48.784;9.174;2022-10-31T10:25:19;16.80;93.20
7562;DHT22;3822;48.784;9.174;2022-10-31T10:30:55;17.00;93.10
7562;DHT22;3822;48.784;9.174;2022-10-31T10:33:28;17.10;93.00
7562;DHT22;3822;48.784;9.174;2022-10-31T10:36:05;17.10;92.90
7562;DHT22;3822;48.784;9.174;2022-10-31T10:38:39;17.20;92.90
7562;DHT22;3822;48.784;9.174;2022-10-31T10:41:20;17.20;92.80
7562;DHT22;3822;48.784;9.174;2022-10-31T10:43:52;17.30;92.70
7562;DHT22;3822;48.784;9.174;2022-10-31T10:49:41;17.40;92.50
7562;DHT22;3822;48.784;9.174;2022-10-31T10:58:09;17.60;92.40
7562;DHT22;3822;48.784;9.174;2022-10-31T11:00:40;17.60;92.20
7562;DHT22;3822;48.784;9.174;2022-10-31T11:03:08;17.70;92.30
7562;DHT22;3822;48.784;9.174;2022-10-31T11:08:31;17.60;92.30
7562;DHT22;3822;48.784;9.174;2022-10-31T11:11:40;17.70;92.30
7562;DHT22;3822;48.784;9.174;2022-10-31T11:14:13;17.90;92.30
7562;DHT22;3822;48.784;9.174;2022-10-31T11:16:45;17.90;92.20
7562;DHT22;3822;48.784;9.174;2022-10-31T11:19:23;18.00;92.20
7562;DHT22;3822;48.784;9.174;2022-10-31T11:21:52;18.10;92.20
7562;DHT22;3822;48.784;9.174;2022-10-31T11:24:21;18.10;92.10
7562;DHT22;3822;48.784;9.174;2022-10-31T11:26:50;18.20;92.00
7562;DHT22;3822;48.784;9.174;2022-10-31T11:29:21;18.30;92.00
7562;DHT22;3822;48.784;9.174;2022-10-31T11:31:56;18.40;91.90
7562;DHT22;3822;48.784;9.174;2022-10-31T11:34:35;18.40;91.80
7562;DHT22;3822;48.784;9.174;2022-10-31T11:37:13;18.50;91.70
7562;DHT22;3822;48.784;9.174;2022-10-31T11:39:46;18.60;91.60
7562;DHT22;3822;48.784;9.174;2022-10-31T11:42:34;18.70;91.60
7562;DHT22;3822;48.784;9.174;2022-10-31T11:45:31;18.70;91.40
7562;DHT22;3822;48.784;9.174;2022-10-31T11:48:01;18.80;91.40
7562;DHT22;3822;48.784;9.174;2022-10-31T11:50:34;18.90;91.50
7562;DHT22;3822;48.784;9.174;2022-10-31T11:53:03;18.90;91.30
7562;DHT22;3822;48.784;9.174;2022-10-31T11:55:36;19.00;91.40
7562;DHT22;3822;48.784;9.174;2022-10-31T11:58:04;19.10;91.40
7562;DHT22;3822;48.784;9.174;2022-10-31T12:00:50;19.00;91.20
7562;DHT22;3822;48.784;9.174;2022-10-31T12:06:04;19.20;91.40
7562;DHT22;3822;48.784;9.174;2022-10-31T12:08:35;19.30;91.30
7562;DHT22;3822;48.784;9.174;2022-10-31T12:14:50;19.50;91.20
7562;DHT22;3822;48.784;9.174;2022-10-31T12:17:29;19.60;91.30
7562;DHT22;3822;48.784;9.174;2022-10-31T12:32:00;20.00;90.90
7562;DHT22;3822;48.784;9.174;2022-10-31T12:37:49;20.20;90.80
7562;DHT22;3822;48.784;9.174;2022-10-31T12:43:49;20.40;90.50
7562;DHT22;3822;48.784;9.174;2022-10-31T12:46:42;20.40;90.40
7562;DHT22;3822;48.784;9.174;2022-10-31T12:52:53;20.50;90.30
7562;DHT22;3822;48.784;9.174;2022-10-31T12:56:17;20.50;90.20
7562;DHT22;3822;48.784;9.174;2022-10-31T12:58:59;20.60;90.10
7562;DHT22;3822;48.784;9.174;2022-10-31T13:01:34;20.60;90.10
7562;DHT22;3822;48.784;9.174;2022-10-31T13:06:49;20.60;90.00
7562;DHT22;3822;48.784;9.174;2022-10-31T13:09:48;20.60;90.00
7562;DHT22;3822;48.784;9.174;2022-10-31T13:12:21;20.60;90.00
7562;DHT22;3822;48.784;9.174;2022-10-31T13:14:53;20.60;89.90
7562;DHT22;3822;48.784;9.174;2022-10-31T13:17:26;20.60;89.90
7562;DHT22;3822;48.784;9.174;2022-10-31T13:20:13;20.60;89.80
7562;DHT22;3822;48.784;9.174;2022-10-31T13:22:46;20.60;89.70
7562;DHT22;3822;48.784;9.174;2022-10-31T13:25:26;20.60;89.70
7562;DHT22;3822;48.784;9.174;2022-10-31T13:28:00;20.60;89.70
7562;DHT22;3822;48.784;9.174;2022-10-31T13:30:33;20.60;89.80
7562;DHT22;3822;48.784;9.174;2022-10-31T13:33:09;20.60;89.70
7562;DHT22;3822;48.784;9.174;2022-10-31T13:39:22;20.60;89.70
7562;DHT22;3822;48.784;9.174;2022-10-31T13:41:57;20.60;89.50
7562;DHT22;3822;48.784;9.174;2022-10-31T13:44:35;20.60;89.50
7562;DHT22;3822;48.784;9.174;2022-10-31T13:47:26;20.70;89.50
7562;DHT22;3822;48.784;9.174;2022-10-31T13:50:24;20.80;90.00
7562;DHT22;3822;48.784;9.174;2022-10-31T13:53:19;20.90;89.10
7562;DHT22;3822;48.784;9.174;2022-10-31T13:55:50;21.00;88.90
7562;DHT22;3822;48.784;9.174;2022-10-31T13:58:29;21.10;88.70
7562;DHT22;3822;48.784;9.174;2022-10-31T14:01:21;21.20;88.50
7562;DHT22;3822;48.784;9.174;2022-10-31T14:04:15;21.20;88.30
7562;DHT22;3822;48.784;9.174;2022-10-31T14:12:33;21.40;87.80
7562;DHT22;3822;48.784;9.174;2022-10-31T14:15:12;21.50;87.60
7562;DHT22;3822;48.784;9.174;2022-10-31T14:17:54;21.50;87.50
7562;DHT22;3822;48.784;9.174;2022-10-31T14:20:33;21.60;87.40
7562;DHT22;3822;48.784;9.174;2022-10-31T14:23:11;21.70;87.40
7562;DHT22;3822;48.784;9.174;2022-10-31T14:25:39;21.70;87.20
7562;DHT22;3822;48.784;9.174;2022-10-31T14:28:31;21.80;87.00
7562;DHT22;3822;48.784;9.174;2022-10-31T14:31:00;21.80;86.70
7562;DHT22;3822;48.784;9.174;2022-10-31T14:33:33;21.90;86.80
7562;DHT22;3822;48.784;9.174;2022-10-31T14:36:08;21.90;86.60
7562;DHT22;3822;48.784;9.174;2022-10-31T14:41:53;22.10;86.20
7562;DHT22;3822;48.784;9.174;2022-10-31T14:45:02;22.10;85.90
7562;DHT22;3822;48.784;9.174;2022-10-31T14:47:57;22.10;85.70
7562;DHT22;3822;48.784;9.174;2022-10-31T14:50:43;22.30;85.80
7562;DHT22;3822;48.784;9.174;2022-10-31T14:53:27;22.20;85.60
7562;DHT22;3822;48.784;9.174;2022-10-31T14:55:56;22.30;85.60
7562;DHT22;3822;48.784;9.174;2022-10-31T14:58:40;22.30;85.40
7562;DHT22;3822;48.784;9.174;2022-10-31T15:01:22;22.30;85.30
7562;DHT22;3822;48.784;9.174;2022-10-31T15:06:50;22.40;85.30
7562;DHT22;3822;48.784;9.174;2022-10-31T15:09:25;22.30;85.00
7562;DHT22;3822;48.784;9.174;2022-10-31T15:11:51;22.40;85.10
7562;DHT22;3822;48.784;9.174;2022-10-31T15:14:29;22.30;85.00
7562;DHT22;3822;48.784;9.174;2022-10-31T15:17:02;22.30;85.00
7562;DHT22;3822;48.784;9.174;2022-10-31T15:19:30;23.50;86.30
7562;DHT22;3822;48.784;9.174;2022-10-31T15:22:00;22.20;85.20
7562;DHT22;3822;48.784;9.174;2022-10-31T15:24:35;22.20;85.20
7562;DHT22;3822;48.784;9.174;2022-10-31T15:27:03;22.10;85.10
7562;DHT22;3822;48.784;9.174;2022-10-31T15:29:29;22.10;85.30
7562;DHT22;3822;48.784;9.174;2022-10-31T15:31:58;22.00;85.30
7562;DHT22;3822;48.784;9.174;2022-10-31T15:34:42;21.90;85.40
7562;DHT22;3822;48.784;9.174;2022-10-31T15:37:14;21.90;85.70
7562;DHT22;3822;48.784;9.174;2022-10-31T15:39:43;21.80;86.00
7562;DHT22;3822;48.784;9.174;2022-10-31T15:42:56;21.80;86.20
7562;DHT22;3822;48.784;9.174;2022-10-31T15:45:23;21.70;86.50
7562;DHT22;3822;48.784;9.174;2022-10-31T15:47:55;21.60;86.60
7562;DHT22;3822;48.784;9.174;2022-10-31T15:50:36;21.50;86.70
7562;DHT22;3822;48.784;9.174;2022-10-31T15:53:06;21.50;86.70
7562;DHT22;3822;48.784;9.174;2022-10-31T15:55:56;21.40;86.60
7562;DHT22;3822;48.784;9.174;2022-10-31T15:58:41;21.30;86.70
7562;DHT22;3822;48.784;9.174;2022-10-31T16:01:28;21.20;86.80
7562;DHT22;3822;48.784;9.174;2022-10-31T16:06:38;21.10;87.10
7562;DHT22;3822;48.784;9.174;2022-10-31T16:09:22;21.00;87.20
7562;DHT22;3822;48.784;9.174;2022-10-31T16:11:50;20.90;87.40
7562;DHT22;3822;48.784;9.174;2022-10-31T16:14:17;20.80;87.60
7562;DHT22;3822;48.784;9.174;2022-10-31T16:16:47;20.70;87.60
7562;DHT22;3822;48.784;9.174;2022-10-31T16:19:28;20.70;87.90
7562;DHT22;3822;48.784;9.174;2022-10-31T16:22:22;20.60;88.00
7562;DHT22;3822;48.784;9.174;2022-10-31T16:27:34;20.50;88.60
7562;DHT22;3822;48.784;9.174;2022-10-31T16:30:02;20.40;88.70
7562;DHT22;3822;48.784;9.174;2022-10-31T16:32:55;20.40;88.90
7562;DHT22;3822;48.784;9.174;2022-10-31T16:35:37;20.30;88.90
7562;DHT22;3822;48.784;9.174;2022-10-31T16:38:05;20.30;89.10
7562;DHT22;3822;48.784;9.174;2022-10-31T16:40:32;20.20;89.30
7562;DHT22;3822;48.784;9.174;2022-10-31T16:42:59;20.10;89.30
7562;DHT22;3822;48.784;9.174;2022-10-31T16:45:29;20.10;89.60
7562;DHT22;3822;48.784;9.174;2022-10-31T16:48:10;20.00;89.80
7562;DHT22;3822;48.784;9.174;2022-10-31T16:50:42;21.50;90.60
7562;DHT22;3822;48.784;9.174;2022-10-31T16:53:10;19.90;90.00
7562;DHT22;3822;48.784;9.174;2022-10-31T16:58:24;19.80;90.10
7562;DHT22;3822;48.784;9.174;2022-10-31T17:00:52;19.70;90.20
7562;DHT22;3822;48.784;9.174;2022-10-31T17:03:19;19.70;90.20
7562;DHT22;3822;48.784;9.174;2022-10-31T17:05:46;19.80;90.40
7562;DHT22;3822;48.784;9.174;2022-10-31T17:08:13;19.60;90.40
7562;DHT22;3822;48.784;9.174;2022-10-31T17:10:40;19.50;90.40
7562;DHT22;3822;48.784;9.174;2022-10-31T17:13:15;19.50;90.50
7562;DHT22;3822;48.784;9.174;2022-10-31T17:15:51;19.50;90.60
7562;DHT22;3822;48.784;9.174;2022-10-31T17:18:20;19.40;90.60
7562;DHT22;3822;48.784;9.174;2022-10-31T17:20:47;19.40;90.70
7562;DHT22;3822;48.784;9.174;2022-10-31T17:23:15;19.30;90.70
7562;DHT22;3822;48.784;9.174;2022-10-31T17:25:42;19.30;90.80
7562;DHT22;3822;48.784;9.174;2022-10-31T17:28:11;19.20;90.80
7562;DHT22;3822;48.784;9.174;2022-10-31T17:30:40;19.20;90.90
7562;DHT22;3822;48.784;9.174;2022-10-31T17:33:18;19.20;90.90
7562;DHT22;3822;48.784;9.174;2022-10-31T17:35:44;19.10;91.00
7562;DHT22;3822;48.784;9.174;2022-10-31T17:38:11;19.00;91.00
7562;DHT22;3822;48.784;9.174;2022-10-31T17:40:39;19.00;91.10
7562;DHT22;3822;48.784;9.174;2022-10-31T17:43:09;18.90;91.20
7562;DHT22;3822;48.784;9.174;2022-10-31T17:45:40;18.80;91.20
7562;DHT22;3822;48.784;9.174;2022-10-31T17:48:10;18.80;91.30
7562;DHT22;3822;48.784;9.174;2022-10-31T17:50:38;18.80;91.40
7562;DHT22;3822;48.784;9.174;2022-10-31T17:53:08;18.70;91.40
7562;DHT22;3822;48.784;9.174;2022-10-31T17:55:36;18.70;91.70
7562;DHT22;3822;48.784;9.174;2022-10-31T17:58:03;18.60;91.50
7562;DHT22;3822;48.784;9.174;2022-10-31T18:00:30;18.60;91.60
7562;DHT22;3822;48.784;9.174;2022-10-31T18:02:56;18.60;91.70
7562;DHT22;3822;48.784;9.174;2022-10-31T18:05:23;18.50;92.00
7562;DHT22;3822;48.784;9.174;2022-10-31T18:07:50;19.20;92.10
7562;DHT22;3822;48.784;9.174;2022-10-31T18:10:17;18.50;91.90
7562;DHT22;3822;48.784;9.174;2022-10-31T18:12:43;18.40;92.00
7562;DHT22;3822;48.784;9.174;2022-10-31T18:15:10;18.40;92.10
7562;DHT22;3822;48.784;9.174;2022-10-31T18:17:36;18.30;92.10
7562;DHT22;3822;48.784;9.174;2022-10-31T18:20:03;18.30;92.20
7562;DHT22;3822;48.784;9.174;2022-10-31T18:22:30;18.30;92.30
7562;DHT22;3822;48.784;9.174;2022-10-31T18:24:56;18.20;92.30
7562;DHT22;3822;48.784;9.174;2022-10-31T18:27:23;18.20;92.40
7562;DHT22;3822;48.784;9.174;2022-10-31T18:29:49;18.20;92.40
7562;DHT22;3822;48.784;9.174;2022-10-31T18:32:17;18.10;92.50
7562;DHT22;3822;48.784;9.174;2022-10-31T18:34:43;18.10;92.60
7562;DHT22;3822;48.784;9.174;2022-10-31T18:37:09;18.10;92.70
7562;DHT22;3822;48.784;9.174;2022-10-31T18:39:37;18.00;92.70
7562;DHT22;3822;48.784;9.174;2022-10-31T18:42:04;18.00;92.80